Time;durP1;ratioP1;P1;durP2;ratioP2;P2;SDS_P1;SDS_P2;PMS_P1;PMS_P2;Temp;Humidity;BMP_temperature;BMP_pressure;BME280_temperature;BME280_humidity;BME280_pressure;Samples;Min_cycle;Max_cycle;Signal;HPM_P1;HPM_P2
2022/04/29 00:02:08;;;;;;;10.52;9.13;;;4.50;99.90;;;;;;5051282;28;20463;-83
2022/04/29 00:04:36;;;;;;;10.45;8.85;;;4.60;99.90;;;;;;5049412;28;20380;-81
2022/04/29 00:07:02;;;;;;;9.50;8.50;;;4.50;99.90;;;;;;5049226;28;20462;-82
2022/04/29 00:09:28;;;;;;;11.93;9.53;;;4.50;99.90;;;;;;5029414;28;20421;-83
2022/04/29 00:11:55;;;;;;;9.57;8.52;;;4.50;99.90;;;;;;5059942;28;20479;-83
2022/04/29 00:14:23;;;;;;;13.65;9.85;;;4.40;99.90;;;;;;5048618;28;20376;-82
2022/04/29 00:16:50;;;;;;;10.18;8.65;;;4.40;99.90;;;;;;5049196;28;20391;-81
2022/04/29 00:19:16;;;;;;;11.30;8.52;;;4.30;99.90;;;;;;5049333;28;20866;-81
2022/04/29 00:21:42;;;;;;;10.93;8.57;;;4.30;99.90;;;;;;5049315;28;20754;-82
2022/04/29 00:24:11;;;;;;;10.83;8.70;;;4.30;99.90;;;;;;5049950;28;20400;-82
2022/04/29 00:26:38;;;;;;;10.13;8.57;;;4.30;99.90;;;;;;5030001;28;20393;-83
2022/04/29 00:29:04;;;;;;;10.25;9.18;;;4.30;99.90;;;;;;5048756;28;20455;-83
2022/04/29 00:31:30;;;;;;;10.93;8.73;;;4.30;99.90;;;;;;5043824;28;20379;-83
2022/04/29 00:33:57;;;;;;;10.18;8.05;;;4.30;99.90;;;;;;5049734;28;20376;-84
2022/04/29 00:36:23;;;;;;;9.45;8.50;;;4.20;99.90;;;;;;5048833;28;20384;-83
2022/04/29 00:38:48;;;;;;;12.88;8.88;;;4.30;99.90;;;;;;5047690;28;20950;-83
2022/04/29 00:41:19;;;;;;;11.52;8.50;;;4.20;99.90;;;;;;5049863;28;20477;-84
2022/04/29 00:43:45;;;;;;;9.90;9.00;;;4.20;99.90;;;;;;5048587;28;20405;-82
2022/04/29 00:46:11;;;;;;;10.70;8.83;;;4.20;99.90;;;;;;5048850;28;20461;-84
2022/04/29 00:48:37;;;;;;;11.10;9.17;;;4.20;99.90;;;;;;5050214;28;20402;-83
2022/04/29 00:51:04;;;;;;;10.97;9.03;;;4.20;99.90;;;;;;5050162;28;20946;-83
2022/04/29 00:53:30;;;;;;;11.63;9.07;;;4.20;99.90;;;;;;5049944;28;20430;-83
2022/04/29 00:55:59;;;;;;;11.55;9.30;;;4.20;99.90;;;;;;5049936;28;20388;-83
2022/04/29 00:58:34;;;;;;;11.02;9.27;;;4.10;99.90;;;;;;5032334;28;20383;-82
2022/04/29 01:01:03;;;;;;;10.77;9.15;;;4.10;99.90;;;;;;5058846;28;20384;-82
2022/04/29 01:03:29;;;;;;;9.80;8.80;;;4.10;99.90;;;;;;5043726;28;20380;-83
2022/04/29 01:05:55;;;;;;;10.35;8.60;;;4.00;99.90;;;;;;5048652;28;20380;-84
2022/04/29 01:08:21;;;;;;;10.77;9.67;;;4.00;99.90;;;;;;5045367;28;20909;-83
2022/04/29 01:10:47;;;;;;;10.05;9.05;;;4.00;99.90;;;;;;5064407;28;20388;-83
2022/04/29 01:13:13;;;;;;;10.65;9.40;;;4.00;99.90;;;;;;5048241;28;20403;-83
2022/04/29 01:15:39;;;;;;;12.02;9.52;;;4.00;99.90;;;;;;5049581;28;20379;-83
2022/04/29 01:18:08;;;;;;;45.22;12.40;;;3.90;99.90;;;;;;5048601;28;20372;-83
2022/04/29 01:20:35;;;;;;;64.50;14.25;;;3.90;99.90;;;;;;5048185;28;20881;-84
2022/04/29 01:23:08;;;;;;;55.10;14.40;;;3.90;99.90;;;;;;5048207;28;20376;-83
2022/04/29 01:25:34;;;;;;;41.60;12.93;;;3.90;99.90;;;;;;5049601;28;20397;-83
2022/04/29 01:28:01;;;;;;;25.23;10.73;;;3.80;99.90;;;;;;5052628;28;20459;-83
2022/04/29 01:30:26;;;;;;;18.83;9.67;;;3.80;99.90;;;;;;5029881;28;20447;-84
2022/04/29 01:32:55;;;;;;;13.03;9.57;;;3.80;99.90;;;;;;5050806;28;20706;-83
2022/04/29 01:35:22;;;;;;;16.75;9.10;;;3.80;99.90;;;;;;5043180;28;20920;-84
2022/04/29 01:37:48;;;;;;;15.05;9.45;;;3.80;99.90;;;;;;5049319;28;20395;-83
2022/04/29 01:40:14;;;;;;;18.38;10.05;;;3.80;99.90;;;;;;5064565;28;20434;-83
2022/04/29 01:42:41;;;;;;;17.02;9.40;;;3.70;99.90;;;;;;5064884;28;20437;-83
2022/04/29 01:45:10;;;;;;;18.98;9.88;;;3.70;99.90;;;;;;5048611;28;20387;-83
2022/04/29 01:47:37;;;;;;;11.98;9.48;;;3.60;99.90;;;;;;5049473;28;20398;-83
2022/04/29 01:50:04;;;;;;;15.02;9.57;;;3.60;99.90;;;;;;5048866;28;20857;-82
2022/04/29 01:52:30;;;;;;;12.93;9.63;;;3.70;99.90;;;;;;5048787;28;20364;-83
2022/04/29 01:54:58;;;;;;;11.13;9.13;;;3.70;99.90;;;;;;5046773;28;20858;-83
2022/04/29 01:57:24;;;;;;;14.98;9.40;;;3.60;99.90;;;;;;5049057;28;20388;-83
2022/04/29 01:59:50;;;;;;;11.35;9.10;;;3.60;99.90;;;;;;5048943;28;20380;-83
2022/04/29 02:02:16;;;;;;;12.32;9.32;;;3.60;99.90;;;;;;5047799;28;20380;-83
2022/04/29 02:04:42;;;;;;;10.87;8.77;;;3.50;99.90;;;;;;5048799;28;20391;-84
2022/04/29 02:07:08;;;;;;;11.97;8.97;;;3.50;99.90;;;;;;5047113;28;20392;-83
2022/04/29 02:09:34;;;;;;;10.93;8.77;;;3.40;99.90;;;;;;5027551;28;20914;-83
2022/04/29 02:12:05;;;;;;;10.48;9.18;;;3.40;99.90;;;;;;5047039;28;20745;-83
2022/04/29 02:14:39;;;;;;;9.23;8.20;;;3.30;99.90;;;;;;5047418;28;20394;-83
2022/04/29 02:17:06;;;;;;;10.38;8.95;;;3.30;99.90;;;;;;5057369;28;20391;-83
2022/04/29 02:19:36;;;;;;;10.68;9.00;;;3.20;99.90;;;;;;5042509;28;20443;-83
2022/04/29 02:22:04;;;;;;;9.52;8.55;;;3.20;99.90;;;;;;5047783;28;20395;-83
2022/04/29 02:24:31;;;;;;;14.18;9.20;;;3.10;99.90;;;;;;5049036;28;20863;-84
2022/04/29 02:27:00;;;;;;;12.93;9.75;;;3.10;99.90;;;;;;5047626;28;20388;-82
2022/04/29 02:29:29;;;;;;;10.70;9.32;;;3.10;99.90;;;;;;5031047;28;20403;-83
2022/04/29 02:31:56;;;;;;;11.10;9.82;;;3.00;99.90;;;;;;5048462;28;20790;-84
2022/04/29 02:34:23;;;;;;;10.73;9.57;;;3.00;99.90;;;;;;5047337;28;20508;-83
2022/04/29 02:36:48;;;;;;;10.23;9.13;;;3.10;99.90;;;;;;5046886;28;20466;-83
2022/04/29 02:39:14;;;;;;;11.73;9.43;;;3.00;99.90;;;;;;5047336;28;20530;-83
2022/04/29 02:41:40;;;;;;;10.20;9.20;;;3.00;99.90;;;;;;5047345;28;20391;-83
2022/04/29 02:44:06;;;;;;;10.85;9.65;;;3.00;99.90;;;;;;5048301;28;20379;-83
2022/04/29 02:46:33;;;;;;;10.93;9.35;;;3.00;99.90;;;;;;5040244;28;20376;-83
2022/04/29 02:48:59;;;;;;;12.00;10.07;;;3.00;99.90;;;;;;5048343;28;20408;-83
2022/04/29 02:51:25;;;;;;;10.70;9.60;;;2.90;99.90;;;;;;5047092;28;20592;-83
2022/04/29 02:53:51;;;;;;;13.15;9.30;;;2.90;99.90;;;;;;5047008;28;20372;-83
2022/04/29 02:56:17;;;;;;;11.67;9.63;;;2.80;99.90;;;;;;5046615;28;20501;-83
2022/04/29 02:58:43;;;;;;;10.48;9.48;;;2.80;99.90;;;;;;5046688;28;20750;-83
2022/04/29 03:01:09;;;;;;;13.82;9.85;;;2.80;99.90;;;;;;5046666;28;20893;-82
2022/04/29 03:03:34;;;;;;;10.83;9.80;;;2.80;99.90;;;;;;5047970;28;20379;-82
2022/04/29 03:06:00;;;;;;;10.60;9.50;;;2.80;99.90;;;;;;5046766;28;20390;-81
2022/04/29 03:08:25;;;;;;;11.43;9.63;;;2.70;99.90;;;;;;5046726;28;20921;-83
2022/04/29 03:10:51;;;;;;;10.50;9.30;;;2.70;99.90;;;;;;5048233;28;20766;-83
2022/04/29 03:13:17;;;;;;;10.90;9.80;;;2.70;99.90;;;;;;5063289;28;20435;-83
2022/04/29 03:15:43;;;;;;;10.93;9.40;;;2.60;99.90;;;;;;5041341;28;20466;-83
2022/04/29 03:18:21;;;;;;;10.40;9.35;;;2.70;99.90;;;;;;5047068;28;20380;-83
2022/04/29 03:20:49;;;;;;;14.77;10.53;;;2.60;99.90;;;;;;5046936;28;20453;-84
2022/04/29 03:23:15;;;;;;;12.75;10.10;;;2.60;99.90;;;;;;5031781;28;20877;-84
2022/04/29 03:25:41;;;;;;;18.03;10.80;;;2.50;99.90;;;;;;5050498;28;20457;-84
2022/04/29 03:28:07;;;;;;;19.73;11.10;;;2.50;99.90;;;;;;5051766;28;20461;-84
2022/04/29 03:30:34;;;;;;;24.08;11.38;;;2.50;99.90;;;;;;5050633;28;20738;-84
2022/04/29 03:33:02;;;;;;;29.95;11.50;;;2.50;99.90;;;;;;5050286;28;20412;-84
2022/04/29 03:35:27;;;;;;;27.30;11.30;;;2.50;99.90;;;;;;5049819;28;20388;-85
2022/04/29 03:37:53;;;;;;;22.60;11.23;;;2.50;99.90;;;;;;5051433;28;20723;-84
2022/04/29 03:40:21;;;;;;;33.00;12.93;;;2.40;99.90;;;;;;5051738;28;20372;-83
2022/04/29 03:42:48;;;;;;;36.60;12.65;;;2.50;99.90;;;;;;5049909;28;20402;-84
2022/04/29 03:45:13;;;;;;;30.10;11.57;;;2.50;99.90;;;;;;5051976;28;20467;-83
2022/04/29 03:47:39;;;;;;;31.93;11.80;;;2.50;99.90;;;;;;5049929;28;20924;-84
2022/04/29 03:50:05;;;;;;;23.10;11.57;;;2.50;99.90;;;;;;5050542;28;20372;-83
2022/04/29 03:52:31;;;;;;;96.40;19.25;;;2.50;99.90;;;;;;5049863;28;20392;-83
2022/04/29 03:54:57;;;;;;;15.95;10.68;;;2.50;99.90;;;;;;5050564;28;20413;-84
2022/04/29 03:57:22;;;;;;;13.60;9.70;;;2.60;99.90;;;;;;5051576;28;20881;-84
2022/04/29 03:59:49;;;;;;;27.43;10.73;;;2.60;99.90;;;;;;5030286;28;20386;-84
2022/04/29 04:02:14;;;;;;;28.77;10.98;;;2.60;99.90;;;;;;5046716;28;20394;-81
2022/04/29 04:04:40;;;;;;;22.20;10.93;;;2.60;99.90;;;;;;5033156;28;20388;-83
2022/04/29 04:07:06;;;;;;;16.03;9.93;;;2.70;99.90;;;;;;5032824;28;20434;-84
2022/04/29 04:09:31;;;;;;;19.17;9.77;;;2.80;99.90;;;;;;5049893;28;20443;-83
2022/04/29 04:11:57;;;;;;;12.97;9.20;;;2.90;99.90;;;;;;5049860;28;20392;-83
2022/04/29 04:14:23;;;;;;;23.30;10.90;;;2.90;99.90;;;;;;5050825;28;20382;-83
2022/04/29 04:16:49;;;;;;;19.80;10.95;;;3.10;99.90;;;;;;5049651;28;20387;-83
2022/04/29 04:19:14;;;;;;;13.52;9.57;;;3.20;99.90;;;;;;5050912;28;20424;-84
2022/04/29 04:21:40;;;;;;;11.63;9.60;;;3.40;99.90;;;;;;5049573;28;20384;-83
2022/04/29 04:24:07;;;;;;;11.60;9.68;;;3.50;99.90;;;;;;5049546;28;20881;-83
2022/04/29 04:26:32;;;;;;;10.33;9.03;;;3.60;99.90;;;;;;5065610;28;20427;-83
2022/04/29 04:28:58;;;;;;;11.13;8.53;;;3.70;99.90;;;;;;5050597;28;20513;-83
2022/04/29 04:31:24;;;;;;;11.80;8.73;;;3.80;99.90;;;;;;5050196;28;20375;-83
2022/04/29 04:33:53;;;;;;;9.38;8.48;;;3.80;99.90;;;;;;5049957;28;20391;-83
2022/04/29 04:36:19;;;;;;;9.40;8.32;;;4.00;99.90;;;;;;5050220;28;20491;-83
2022/04/29 04:38:47;;;;;;;22.80;9.18;;;4.30;99.90;;;;;;5048988;28;20482;-83
2022/04/29 04:41:15;;;;;;;58.58;13.15;;;4.60;99.90;;;;;;5029979;28;20389;-83
2022/04/29 04:43:43;;;;;;;10.43;7.68;;;5.00;99.90;;;;;;5049997;28;20384;-83
2022/04/29 04:46:11;;;;;;;60.83;13.37;;;5.20;99.90;;;;;;5050225;28;20384;-83
2022/04/29 04:48:39;;;;;;;24.55;9.13;;;5.30;99.90;;;;;;5050358;28;20403;-83
2022/04/29 04:51:06;;;;;;;24.35;9.20;;;5.40;99.90;;;;;;5048787;28;20383;-83
2022/04/29 04:53:31;;;;;;;38.05;10.38;;;5.50;99.90;;;;;;5048674;28;20453;-83
2022/04/29 04:55:57;;;;;;;28.23;9.50;;;5.60;99.90;;;;;;5048345;28;20882;-83
2022/04/29 04:58:23;;;;;;;128.65;19.15;;;5.80;99.90;;;;;;5048212;28;20391;-83
2022/04/29 05:00:50;;;;;;;24.30;8.63;;;6.00;99.90;;;;;;5065082;28;20396;-83
2022/04/29 05:03:16;;;;;;;17.42;7.32;;;6.10;99.90;;;;;;5053451;28;20398;-83
2022/04/29 05:05:41;;;;;;;18.03;8.00;;;6.20;99.90;;;;;;5049667;28;20437;-83
2022/04/29 05:08:07;;;;;;;13.70;7.10;;;6.30;99.90;;;;;;5048061;28;20510;-84
2022/04/29 05:10:32;;;;;;;12.10;7.15;;;6.30;99.90;;;;;;5049066;28;20441;-83
2022/04/29 05:12:58;;;;;;;11.85;7.50;;;6.30;99.90;;;;;;5048482;28;20881;-83
2022/04/29 05:15:24;;;;;;;10.07;7.37;;;6.40;99.90;;;;;;5050132;28;20853;-83
2022/04/29 05:17:49;;;;;;;16.10;7.83;;;6.40;99.90;;;;;;5032463;28;20391;-83
2022/04/29 05:20:18;;;;;;;31.45;9.27;;;6.50;99.90;;;;;;5048471;28;20463;-84
2022/04/29 05:22:46;;;;;;;10.73;6.82;;;6.50;99.90;;;;;;5048716;28;20387;-83
2022/04/29 05:25:12;;;;;;;6.88;6.18;;;6.70;99.90;;;;;;5049331;28;20395;-83
2022/04/29 05:27:37;;;;;;;25.60;7.83;;;6.90;99.90;;;;;;5049395;28;20396;-83
2022/04/29 05:30:03;;;;;;;19.80;7.20;;;7.00;99.90;;;;;;5049257;28;20459;-84
2022/04/29 05:32:30;;;;;;;19.45;7.53;;;7.20;99.90;;;;;;5047877;28;20406;-83
2022/04/29 05:34:56;;;;;;;14.20;6.13;;;7.40;99.90;;;;;;5028184;28;20428;-82
2022/04/29 05:37:22;;;;;;;11.30;6.03;;;7.60;99.90;;;;;;5047806;28;20403;-82
2022/04/29 05:42:33;;;;;;;11.02;7.07;;;8.00;99.90;;;;;;5048564;28;20880;-83
2022/04/29 05:45:00;;;;;;;24.77;18.20;;;8.00;99.90;;;;;;5049264;28;20368;-83
2022/04/29 05:47:26;;;;;;;40.33;27.20;;;8.00;99.90;;;;;;5048080;28;20878;-83
2022/04/29 05:49:51;;;;;;;40.20;29.50;;;8.10;99.90;;;;;;5047798;28;20441;-82
2022/04/29 05:52:17;;;;;;;42.70;31.25;;;8.20;99.90;;;;;;5048357;28;20382;-82
2022/04/29 05:54:42;;;;;;;36.93;25.50;;;8.30;99.90;;;;;;5064137;28;20758;-82
2022/04/29 05:57:08;;;;;;;14.27;11.30;;;8.50;99.90;;;;;;5047297;28;20874;-82
2022/04/29 05:59:34;;;;;;;11.55;8.32;;;9.00;99.90;;;;;;5047659;28;20430;-83
2022/04/29 06:02:00;;;;;;;14.20;7.83;;;9.30;99.90;;;;;;5048736;28;20379;-82
2022/04/29 06:04:26;;;;;;;9.77;6.78;;;9.70;99.90;;;;;;5047185;28;20379;-81
2022/04/29 06:06:52;;;;;;;9.35;6.88;;;10.00;99.90;;;;;;5047093;28;20395;-82
2022/04/29 06:09:18;;;;;;;14.97;9.60;;;10.40;99.90;;;;;;5047149;28;20395;-83
2022/04/29 06:11:45;;;;;;;14.80;10.60;;;10.60;99.90;;;;;;5045970;28;21015;-82
2022/04/29 06:14:10;;;;;;;13.45;10.27;;;10.80;99.90;;;;;;5047733;28;20386;-83
2022/04/29 06:16:36;;;;;;;16.53;10.17;;;11.10;99.90;;;;;;5048587;28;20380;-82
2022/04/29 06:19:02;;;;;;;54.90;14.67;;;11.30;99.90;;;;;;5047463;28;20391;-83
2022/04/29 06:21:27;;;;;;;34.75;12.73;;;11.60;99.90;;;;;;5064561;28;20388;-83
2022/04/29 06:23:53;;;;;;;22.07;11.93;;;11.90;99.90;;;;;;5048025;28;20457;-82
2022/04/29 06:26:19;;;;;;;22.42;10.35;;;12.20;99.90;;;;;;5047110;28;20384;-82
2022/04/29 06:28:45;;;;;;;17.85;10.25;;;12.40;99.90;;;;;;5064084;28;20443;-83
2022/04/29 06:31:11;;;;;;;29.38;11.10;;;12.80;99.90;;;;;;5046884;28;20412;-82
2022/04/29 06:33:38;;;;;;;19.27;8.43;;;13.20;99.90;;;;;;5046397;28;20395;-83
2022/04/29 06:36:05;;;;;;;16.35;8.27;;;13.70;99.90;;;;;;5044902;28;20400;-83
2022/04/29 06:38:31;;;;;;;12.73;6.82;;;13.80;99.90;;;;;;5048962;28;20412;-82
2022/04/29 06:40:57;;;;;;;11.82;6.22;;;14.10;99.90;;;;;;5051452;28;20452;-83
2022/04/29 06:43:23;;;;;;;10.73;5.32;;;14.20;99.90;;;;;;5047675;28;20937;-83
2022/04/29 06:45:49;;;;;;;6.80;4.63;;;14.40;99.90;;;;;;5047514;28;20387;-83
2022/04/29 06:48:15;;;;;;;8.75;5.32;;;14.60;99.90;;;;;;5048066;28;20449;-82
2022/04/29 06:50:42;;;;;;;8.27;4.70;;;14.70;99.90;;;;;;5048121;28;20368;-83
2022/04/29 06:53:08;;;;;;;9.30;5.00;;;14.60;99.90;;;;;;5047235;28;20389;-84
2022/04/29 06:55:38;;;;;;;7.73;4.30;;;14.70;99.90;;;;;;5048731;28;20348;-83
2022/04/29 06:58:04;;;;;;;8.68;4.45;;;14.60;99.40;;;;;;5050696;28;20476;-84
2022/04/29 07:00:30;;;;;;;7.83;3.80;;;14.70;99.90;;;;;;5050939;28;20904;-84
2022/04/29 07:02:56;;;;;;;7.43;4.00;;;14.60;98.00;;;;;;5050599;28;20371;-84
2022/04/29 07:05:28;;;;;;;8.15;3.60;;;14.30;99.90;;;;;;5051813;28;20912;-84
2022/04/29 07:07:54;;;;;;;7.80;3.83;;;14.70;97.30;;;;;;5050864;28;20442;-84
2022/04/29 07:10:19;;;;;;;6.30;3.50;;;14.80;97.60;;;;;;5050373;28;20395;-84
2022/04/29 07:12:49;;;;;;;9.00;3.87;;;15.20;96.30;;;;;;5050012;28;20406;-84
2022/04/29 07:15:15;;;;;;;9.02;3.70;;;15.40;95.10;;;;;;5067282;28;20483;-83
2022/04/29 07:17:44;;;;;;;10.25;3.80;;;15.50;94.40;;;;;;5050976;28;20395;-84
2022/04/29 07:20:12;;;;;;;6.90;3.80;;;15.60;95.10;;;;;;5051146;28;20992;-84
2022/04/29 07:22:39;;;;;;;7.30;3.45;;;15.50;93.70;;;;;;5047919;28;20404;-84
2022/04/29 07:25:10;;;;;;;8.10;3.60;;;15.80;95.30;;;;;;5051188;28;20418;-84
2022/04/29 07:27:39;;;;;;;6.25;2.90;;;16.10;95.20;;;;;;5062728;28;20781;-85
2022/04/29 07:30:06;;;;;;;6.55;3.45;;;16.50;92.30;;;;;;5048949;28;20888;-84
2022/04/29 07:32:33;;;;;;;7.78;3.53;;;16.70;90.80;;;;;;5050288;28;20398;-84
2022/04/29 07:43:15;;;;;;;14.23;3.47;;;;;;;;;;5051511;28;20422;-85
2022/04/29 07:45:43;;;;;;;7.20;3.03;;;17.00;91.10;;;;;;5048978;28;20762;-85
2022/04/29 07:48:09;;;;;;;7.93;3.10;;;17.20;91.50;;;;;;5031501;28;20423;-85
2022/04/29 07:50:36;;;;;;;6.57;3.00;;;17.40;91.00;;;;;;5049271;28;20437;-85
2022/04/29 07:53:03;;;;;;;8.60;2.87;;;17.40;90.50;;;;;;5031900;28;20396;-85
2022/04/29 07:55:29;;;;;;;7.38;2.63;;;17.70;87.70;;;;;;5050147;28;20383;-85
2022/04/29 07:57:57;;;;;;;9.02;2.88;;;17.70;90.30;;;;;;5037166;28;20436;-85
2022/04/29 08:00:23;;;;;;;6.43;3.10;;;17.90;89.90;;;;;;5049557;28;20867;-85
2022/04/29 08:02:48;;;;;;;9.40;3.50;;;18.00;87.20;;;;;;5050649;28;20441;-85
2022/04/29 08:05:14;;;;;;;7.78;3.20;;;18.10;87.50;;;;;;5048777;28;20426;-85
2022/04/29 08:07:40;;;;;;;7.90;3.50;;;18.00;89.40;;;;;;5032298;28;20491;-84
2022/04/29 08:10:06;;;;;;;7.30;3.10;;;18.00;85.80;;;;;;5043823;28;20451;-86
2022/04/29 08:12:33;;;;;;;19.67;4.20;;;18.10;87.30;;;;;;5049570;28;20610;-84
2022/04/29 08:14:59;;;;;;;10.13;3.63;;;18.40;88.40;;;;;;5050894;28;20896;-85
2022/04/29 08:17:37;;;;;;;6.70;3.22;;;18.60;82.80;;;;;;5052318;28;20372;-85
2022/04/29 08:20:03;;;;;;;9.00;3.70;;;18.40;81.70;;;;;;5048792;28;20388;-85
2022/04/29 08:22:29;;;;;;;9.63;3.65;;;18.40;81.90;;;;;;5048745;28;20793;-85
2022/04/29 08:24:55;;;;;;;13.23;3.30;;;18.40;81.80;;;;;;5048894;28;20380;-84
2022/04/29 08:27:21;;;;;;;7.63;3.35;;;18.40;81.80;;;;;;5048593;28;20391;-85
2022/04/29 08:29:48;;;;;;;10.77;3.40;;;18.40;84.30;;;;;;5049379;28;20794;-84
2022/04/29 08:32:14;;;;;;;10.52;3.22;;;18.40;85.90;;;;;;5030958;28;20385;-86
2022/04/29 08:34:39;;;;;;;15.90;3.60;;;18.50;82.90;;;;;;5050079;28;20383;-85
2022/04/29 08:37:07;;;;;;;5.85;3.08;;;18.50;82.50;;;;;;5052793;28;20737;-84
2022/04/29 08:39:32;;;;;;;8.95;3.13;;;18.50;82.10;;;;;;5048543;28;20403;-83
2022/04/29 08:42:00;;;;;;;12.33;3.57;;;18.70;80.60;;;;;;5031059;28;20394;-83
2022/04/29 08:44:31;;;;;;;9.02;3.08;;;18.80;79.90;;;;;;5048632;28;20379;-84
2022/04/29 08:46:58;;;;;;;7.57;3.20;;;19.00;76.20;;;;;;5048371;28;20392;-83
2022/04/29 08:49:25;;;;;;;7.77;3.43;;;19.20;79.20;;;;;;5048766;28;20928;-84
2022/04/29 08:51:51;;;;;;;9.68;4.47;;;19.40;80.20;;;;;;5048765;28;20470;-83
2022/04/29 09:00:04;;;;;;;8.57;4.10;;;19.40;78.20;;;;;;5050357;28;20800;-85
2022/04/29 09:02:38;;;;;;;7.53;4.32;;;19.60;77.20;;;;;;5040833;28;20398;-84
2022/04/29 09:05:13;;;;;;;7.97;4.43;;;19.80;79.50;;;;;;5048418;28;20391;-83
2022/04/29 09:07:55;;;;;;;9.07;4.50;;;19.80;80.00;;;;;;5050011;28;20380;-84
2022/04/29 09:10:26;;;;;;;8.48;4.35;;;19.80;79.60;;;;;;5058987;28;20797;-85
2022/04/29 09:12:52;;;;;;;11.10;5.30;;;19.80;80.10;;;;;;5049970;28;20407;-84
2022/04/29 09:15:20;;;;;;;8.57;4.75;;;19.80;80.30;;;;;;5048352;28;20773;-85
2022/04/29 09:17:51;;;;;;;8.55;4.07;;;19.80;76.10;;;;;;5049197;28;20422;-84
2022/04/29 09:20:21;;;;;;;7.07;4.80;;;19.60;77.70;;;;;;5048465;28;20396;-84
2022/04/29 09:22:49;;;;;;;10.43;5.25;;;19.50;80.00;;;;;;5031991;28;20727;-84
2022/04/29 09:25:15;;;;;;;7.28;4.57;;;19.10;80.30;;;;;;5048141;28;20785;-84
2022/04/29 09:28:05;;;;;;;8.52;5.30;;;18.90;83.30;;;;;;5049775;28;20372;-84
2022/04/29 09:30:43;;;;;;;14.13;5.43;;;18.40;84.70;;;;;;5032744;28;20467;-83
2022/04/29 09:33:51;;;;;;;12.75;5.40;;;18.60;84.00;;;;;;5036875;28;20379;-84
2022/04/29 09:36:24;;;;;;;8.60;5.40;;;18.80;85.10;;;;;;5035139;28;20434;-84
2022/04/29 09:41:55;;;;;;;11.90;5.55;;;19.30;82.50;;;;;;5046603;28;20375;-84
2022/04/29 09:44:35;;;;;;;14.10;5.95;;;19.40;78.70;;;;;;5047664;28;20473;-84
2022/04/29 09:47:25;;;;;;;8.70;5.75;;;19.30;81.40;;;;;;5047280;28;21283;-83
2022/04/29 09:49:58;;;;;;;8.90;5.90;;;19.40;84.10;;;;;;5057957;28;20455;-84
2022/04/29 09:52:30;;;;;;;8.83;5.87;;;19.30;80.90;;;;;;5047871;28;23345;-84
2022/04/29 09:55:20;;;;;;;11.77;5.53;;;19.40;82.40;;;;;;5048800;28;20384;-84
2022/04/29 09:58:09;;;;;;;8.90;5.15;;;19.60;80.30;;;;;;5037807;28;20853;-85
2022/04/29 10:00:41;;;;;;;9.00;5.50;;;19.20;78.30;;;;;;5049082;28;20407;-84
2022/04/29 10:03:06;;;;;;;13.00;5.80;;;19.00;80.30;;;;;;5048395;28;20388;-84
2022/04/29 10:05:35;;;;;;;32.33;7.10;;;18.90;82.60;;;;;;5048510;28;20384;-85
2022/04/29 10:08:02;;;;;;;10.30;6.57;;;19.00;82.00;;;;;;5047763;28;20959;-84
2022/04/29 10:10:30;;;;;;;10.13;5.63;;;18.90;81.90;;;;;;5046748;28;20842;-85
2022/04/29 10:12:57;;;;;;;15.32;5.60;;;18.80;79.00;;;;;;5048843;28;20947;-84
2022/04/29 10:15:25;;;;;;;7.57;5.43;;;18.60;80.60;;;;;;5047578;28;20766;-84
2022/04/29 10:23:25;;;;;;;10.35;5.18;;;17.90;79.50;;;;;;5048318;28;20429;-83
2022/04/29 10:25:52;;;;;;;7.22;4.65;;;17.90;82.60;;;;;;5049429;28;20391;-85
2022/04/29 10:28:22;;;;;;;13.23;5.20;;;18.10;80.40;;;;;;5053110;28;20452;-84
2022/04/29 10:31:03;;;;;;;9.65;5.22;;;18.50;79.40;;;;;;5047750;28;20439;-85
2022/04/29 10:33:29;;;;;;;10.40;5.13;;;18.60;77.70;;;;;;5046682;28;20399;-83
2022/04/29 10:36:00;;;;;;;8.63;4.70;;;18.20;77.20;;;;;;5052434;28;20380;-83
2022/04/29 10:38:39;;;;;;;7.87;4.30;;;18.20;78.00;;;;;;5050857;28;20747;-88
2022/04/29 10:41:14;;;;;;;9.45;4.72;;;18.30;77.30;;;;;;5052024;28;20734;-86
2022/04/29 10:43:50;;;;;;;7.28;4.63;;;;;;;;;;5047311;28;20379;-85
2022/04/29 10:46:21;;;;;;;9.38;4.65;;;18.10;75.20;;;;;;5046825;28;20400;-86
2022/04/29 10:48:52;;;;;;;10.98;4.97;;;18.20;83.90;;;;;;5051547;28;20905;-84
2022/04/29 10:51:21;;;;;;;8.13;4.50;;;18.60;79.80;;;;;;5051531;28;20383;-85
2022/04/29 10:53:50;;;;;;;5.57;3.83;;;18.50;73.70;;;;;;5050837;28;20762;-84
2022/04/29 10:57:07;;;;;;;7.25;3.80;;;18.30;72.80;;;;;;5034920;28;20389;-86
2022/04/29 11:00:00;;;;;;;7.97;4.32;;;18.30;73.90;;;;;;5050966;28;20396;-85
2022/04/29 11:02:54;;;;;;;7.55;3.97;;;18.50;73.00;;;;;;5036904;28;20398;-86
2022/04/29 11:05:43;;;;;;;23.50;5.53;;;18.60;72.30;;;;;;5052324;28;20392;-87
2022/04/29 11:08:11;;;;;;;10.38;4.10;;;18.70;73.20;;;;;;5035254;28;20395;-84
2022/04/29 11:10:57;;;;;;;7.38;4.90;;;18.60;75.80;;;;;;5050544;28;20399;-84
2022/04/29 11:13:30;;;;;;;9.52;4.40;;;18.90;78.80;;;;;;5047817;28;20379;-86
2022/04/29 11:16:26;;;;;;;7.45;3.70;;;19.10;75.00;;;;;;5033896;28;21099;-86
2022/04/29 11:19:40;;;;;;;5.45;3.30;;;19.40;73.30;;;;;;5049001;28;20387;-85
2022/04/29 11:24:53;;;;;;;7.30;3.97;;;;;;;;;;5061021;28;20383;-85
2022/04/29 11:27:39;;;;;;;31.75;5.82;;;;;;;;;;5052261;28;21187;-88
2022/04/29 11:30:10;;;;;;;4.68;2.78;;;;;;;;;;5050979;28;20423;-86
2022/04/29 11:32:38;;;;;;;7.50;3.45;;;;;;;;;;5052279;28;20390;-85
2022/04/29 11:35:05;;;;;;;5.22;3.50;;;;;;;;;;5052351;28;20371;-86
2022/04/29 11:37:47;;;;;;;5.82;3.60;;;19.50;69.20;;;;;;5037982;28;20376;-84
2022/04/29 11:40:13;;;;;;;5.18;2.88;;;19.30;68.40;;;;;;5034520;28;20391;-84
2022/04/29 11:42:49;;;;;;;5.40;3.00;;;19.20;70.50;;;;;;5051152;28;20388;-86
2022/04/29 11:45:14;;;;;;;6.70;3.40;;;19.40;71.20;;;;;;5050518;28;20372;-86
2022/04/29 11:47:45;;;;;;;5.78;2.95;;;19.70;67.60;;;;;;5052868;28;20449;-85
2022/04/29 11:50:11;;;;;;;6.28;3.28;;;19.60;69.20;;;;;;5052956;28;20447;-86
2022/04/29 11:52:39;;;;;;;5.10;3.20;;;19.70;68.00;;;;;;5052158;28;20407;-85
2022/04/29 11:55:07;;;;;;;5.32;3.50;;;19.50;67.80;;;;;;5050735;28;20384;-86
2022/04/29 11:57:47;;;;;;;7.78;2.85;;;19.40;67.00;;;;;;5051558;28;20384;-86
2022/04/29 12:00:25;;;;;;;8.02;3.17;;;19.50;68.40;;;;;;5052513;28;20402;-86
2022/04/29 12:02:51;;;;;;;7.75;2.90;;;19.60;65.00;;;;;;5049690;28;20866;-86
2022/04/29 12:05:21;;;;;;;9.25;3.35;;;19.70;67.90;;;;;;5052047;28;20397;-86
2022/04/29 12:07:50;;;;;;;8.57;2.93;;;19.90;67.80;;;;;;5050767;28;20411;-87
2022/04/29 12:10:23;;;;;;;6.10;2.72;;;20.00;70.30;;;;;;5067141;28;20419;-85
2022/04/29 12:13:00;;;;;;;5.80;2.83;;;20.10;68.40;;;;;;5051847;28;20426;-85
2022/04/29 12:15:35;;;;;;;4.72;2.90;;;20.30;67.60;;;;;;5049285;28;20402;-84
2022/04/29 12:18:09;;;;;;;3.22;2.33;;;20.50;65.50;;;;;;5051449;28;20465;-85
2022/04/29 12:20:37;;;;;;;8.38;3.00;;;20.60;65.90;;;;;;5051076;28;20391;-86
2022/04/29 12:23:24;;;;;;;20.02;4.13;;;20.50;65.70;;;;;;5050156;28;20457;-85
2022/04/29 12:25:51;;;;;;;7.93;2.60;;;20.50;64.70;;;;;;5050753;28;20467;-85
2022/04/29 12:28:20;;;;;;;5.53;2.78;;;20.30;65.60;;;;;;5051292;28;20449;-85
2022/04/29 12:36:49;;;;;;;7.03;3.17;;;20.10;68.30;;;;;;5051765;28;20875;-85
2022/04/29 12:39:19;;;;;;;6.22;2.95;;;20.00;68.30;;;;;;5052323;28;20452;-85
2022/04/29 12:42:06;;;;;;;10.40;3.20;;;20.00;68.20;;;;;;5050118;28;20448;-84
2022/04/29 12:45:12;;;;;;;3.65;2.47;;;20.10;68.80;;;;;;5049747;28;20428;-85
2022/04/29 12:47:50;;;;;;;5.93;2.50;;;20.20;67.80;;;;;;5049881;28;20411;-86
2022/04/29 12:50:16;;;;;;;6.03;2.80;;;;;;;;;;5047438;28;20420;-85
2022/04/29 12:53:00;;;;;;;3.35;2.50;;;;;;;;;;5048857;28;20750;-86
2022/04/29 12:55:27;;;;;;;8.27;3.17;;;;;;;;;;5050310;28;20924;-85
2022/04/29 12:58:01;;;;;;;5.10;2.80;;;;;;;;;;5043658;28;20368;-85
2022/04/29 13:00:27;;;;;;;9.65;3.20;;;;;;;;;;5050068;28;21145;-85
2022/04/29 13:03:04;;;;;;;5.93;2.67;;;;;;;;;;5048376;28;20482;-84
2022/04/29 13:05:31;;;;;;;5.13;2.35;;;;;;;;;;5049949;28;20795;-86
2022/04/29 13:07:57;;;;;;;3.80;2.40;;;;;;;;;;5048193;28;20468;-86
2022/04/29 13:10:23;;;;;;;4.43;2.60;;;;;;;;;;5049790;28;20437;-84
2022/04/29 13:12:50;;;;;;;8.95;3.50;;;;;;;;;;5049272;28;20380;-85
2022/04/29 13:15:16;;;;;;;6.10;2.90;;;;;;;;;;5048547;28;20400;-85
2022/04/29 13:17:42;;;;;;;7.75;2.90;;;;;;;;;;5048418;28;20453;-85
2022/04/29 13:20:09;;;;;;;5.37;2.70;;;;;;;;;;5049856;28;20376;-85
2022/04/29 13:22:39;;;;;;;11.63;3.30;;;;;;;;;;5049962;28;20470;-87
2022/04/29 13:25:09;;;;;;;9.30;3.17;;;;;;;;;;5048367;28;20419;-84
2022/04/29 13:27:35;;;;;;;7.20;2.78;;;;;;;;;;5048616;28;20387;-85
2022/04/29 13:30:02;;;;;;;8.25;2.92;;;;;;;;;;5050021;28;20414;-85
2022/04/29 13:32:28;;;;;;;7.13;3.25;;;;;;;;;;5049088;28;20422;-86
2022/04/29 13:34:54;;;;;;;9.52;3.10;;;;;;;;;;5050171;28;20773;-85
2022/04/29 13:37:21;;;;;;;7.18;2.50;;;;;;;;;;5049840;28;20388;-85